KISO

Kinston Regional Jetport at Stallings Field Airport

Kinston, North Carolina, USA
METAR KISO 182156Z 00000KT 10SM SKC 33/23 A2996
Observed Flight Rules
Jun-18 @ 21:56 UTC (47 minutes ago) Visual Flight Rules
Visibility Clouds
10 miles
  • Clear skies
Temperatures Readings
Current 33°C / 91°F
Dewpoint 23°C / 73°F
Humidity 56%
Altimeter 29.96" Hg
Pressure 1015 hPa
Elevation 29
METAR KISO 182156Z 00000KT 10SM SKC 33/23 A2996
Observed Flight Rules
Jun-18 @ 21:56 UTC
(47 minutes ago)
VFR
Clouds
  • Clear skies
Temperature Dewpoint
33°C / 91°F 23°C / 73°F
Humidity Altimeter Pressure
56% 29.96" Hg 1015 hPa